Time;durP1;ratioP1;P1;durP2;ratioP2;P2;SDS_P1;SDS_P2;PMS_P1;PMS_P2;Temp;Humidity;BMP_temperature;BMP_pressure;BME280_temperature;BME280_humidity;BME280_pressure;Samples;Min_cycle;Max_cycle;Signal;HPM_P1;HPM_P2
2022/06/15 00:01:53;;;;;;;2.83;0.68;;;32.10;30.20;;;;;;5089466;28;20046;-45
2022/06/15 00:04:21;;;;;;;1.95;0.50;;;32.10;30.30;;;;;;5090441;28;20500;-47
2022/06/15 00:06:49;;;;;;;1.10;0.28;;;32.10;30.20;;;;;;5089591;28;20110;-44
2022/06/15 00:09:16;;;;;;;0.70;0.60;;;32.10;30.20;;;;;;5088614;28;20067;-45
2022/06/15 00:11:44;;;;;;;6.65;0.20;;;32.10;30.20;;;;;;5084325;28;20532;-47
2022/06/15 00:14:16;;;;;;;1.90;0.20;;;32.10;30.30;;;;;;5076501;28;20079;-46
2022/06/15 00:16:43;;;;;;;2.30;0.32;;;32.10;30.30;;;;;;5093955;28;20040;-48
2022/06/15 00:19:10;;;;;;;1.25;0.30;;;32.10;30.30;;;;;;5092222;28;20520;-47
2022/06/15 00:21:39;;;;;;;2.15;0.25;;;32.10;30.30;;;;;;5092116;28;20047;-45
2022/06/15 00:24:07;;;;;;;1.38;0.30;;;32.10;30.20;;;;;;5088216;28;20036;-43
2022/06/15 00:26:35;;;;;;;2.58;0.50;;;32.10;30.10;;;;;;5093031;28;20134;-44
2022/06/15 00:29:02;;;;;;;0.70;0.30;;;32.10;30.10;;;;;;5090790;28;20035;-45
2022/06/15 00:31:29;;;;;;;0.20;0.20;;;32.10;30.10;;;;;;5074098;28;20177;-48
2022/06/15 00:33:56;;;;;;;0.65;0.20;;;32.10;30.00;;;;;;5075841;28;20406;-47
2022/06/15 00:36:24;;;;;;;1.00;0.40;;;32.10;30.00;;;;;;5088667;28;20039;-45
2022/06/15 00:38:54;;;;;;;1.63;0.60;;;32.10;30.00;;;;;;5087411;28;20036;-49
2022/06/15 00:41:25;;;;;;;1.30;0.40;;;32.10;30.00;;;;;;5091309;28;20048;-46
2022/06/15 00:43:54;;;;;;;4.82;0.43;;;32.10;30.00;;;;;;5096657;28;20044;-45
2022/06/15 00:46:25;;;;;;;0.50;0.20;;;32.10;30.00;;;;;;5090564;28;20062;-44
2022/06/15 00:48:55;;;;;;;0.82;0.20;;;32.00;30.00;;;;;;5093462;28;20050;-44
2022/06/15 00:51:25;;;;;;;0.77;0.20;;;32.10;30.10;;;;;;5074240;28;20075;-44
2022/06/15 00:53:56;;;;;;;1.02;0.38;;;32.00;30.00;;;;;;5088904;28;20477;-51
2022/06/15 00:56:25;;;;;;;3.28;0.35;;;32.00;30.10;;;;;;5094066;28;20051;-46
2022/06/15 00:58:54;;;;;;;2.17;0.90;;;32.00;30.10;;;;;;5093026;28;20419;-51
2022/06/15 01:01:22;;;;;;;0.88;0.28;;;32.00;30.20;;;;;;5093860;28;20118;-47
2022/06/15 01:03:52;;;;;;;0.45;0.35;;;32.00;30.20;;;;;;5086718;28;20828;-51
2022/06/15 01:06:28;;;;;;;0.82;0.35;;;32.00;30.30;;;;;;5085282;28;20818;-48
2022/06/15 01:09:01;;;;;;;0.85;0.28;;;32.00;30.30;;;;;;5087121;28;20147;-48
2022/06/15 01:11:43;;;;;;;1.00;0.32;;;32.00;30.20;;;;;;5094420;28;20052;-50
2022/06/15 01:14:37;;;;;;;1.20;0.40;;;32.00;30.20;;;;;;5091753;28;20097;-44
2022/06/15 01:17:12;;;;;;;1.75;0.20;;;32.00;30.20;;;;;;5093778;28;20059;-46
2022/06/15 01:20:02;;;;;;;1.85;0.20;;;32.00;30.30;;;;;;5080819;28;20587;-45
2022/06/15 01:22:49;;;;;;;1.90;0.93;;;31.90;30.20;;;;;;5079320;28;20128;-45
2022/06/15 01:25:40;;;;;;;0.45;0.20;;;31.90;30.20;;;;;;5095001;28;20047;-49
2022/06/15 01:28:33;;;;;;;0.93;0.30;;;31.90;30.20;;;;;;5085311;28;20516;-46
2022/06/15 01:31:06;;;;;;;1.17;0.73;;;31.90;30.30;;;;;;5091552;28;20036;-44
2022/06/15 01:33:40;;;;;;;1.63;0.17;;;31.90;30.40;;;;;;5090794;28;20036;-49
2022/06/15 01:36:14;;;;;;;4.07;0.20;;;31.90;30.40;;;;;;5091994;28;20032;-46
2022/06/15 01:38:50;;;;;;;0.20;0.20;;;31.90;30.40;;;;;;5094265;28;20622;-45
2022/06/15 01:41:24;;;;;;;1.52;0.75;;;31.90;30.40;;;;;;5099876;28;20040;-44
2022/06/15 01:43:57;;;;;;;1.30;0.20;;;31.90;30.50;;;;;;5098498;28;20044;-46
2022/06/15 01:46:28;;;;;;;2.58;0.25;;;31.90;30.60;;;;;;5084081;28;20053;-49
2022/06/15 01:48:57;;;;;;;0.68;0.17;;;31.90;30.60;;;;;;5084467;28;20035;-46
2022/06/15 01:51:42;;;;;;;0.30;0.20;;;31.90;30.70;;;;;;5073724;28;20039;-44
2022/06/15 01:54:14;;;;;;;2.63;0.10;;;31.80;30.60;;;;;;5098011;28;20095;-47
2022/06/15 01:56:45;;;;;;;5.47;0.30;;;31.80;30.70;;;;;;5073353;28;20110;-47
2022/06/15 01:59:19;;;;;;;0.95;0.20;;;31.80;30.70;;;;;;5078813;28;20051;-46
2022/06/15 02:01:54;;;;;;;1.85;0.90;;;31.80;30.80;;;;;;5102820;28;20044;-47
2022/06/15 02:04:29;;;;;;;1.30;0.63;;;31.80;30.90;;;;;;5076768;28;20469;-47
2022/06/15 02:07:09;;;;;;;0.40;0.10;;;31.80;31.00;;;;;;5079171;28;20036;-53
2022/06/15 02:09:45;;;;;;;1.75;0.30;;;31.80;31.60;;;;;;5082128;28;20102;-45
2022/06/15 02:12:15;;;;;;;1.30;0.68;;;31.80;31.10;;;;;;5071404;28;20124;-44
2022/06/15 02:14:50;;;;;;;1.10;0.20;;;31.80;31.20;;;;;;5074575;28;20040;-44
2022/06/15 02:17:25;;;;;;;0.93;0.43;;;31.80;31.30;;;;;;5079015;28;20127;-44
2022/06/15 02:19:57;;;;;;;0.50;0.10;;;31.80;32.00;;;;;;5080217;28;20201;-47
2022/06/15 02:22:29;;;;;;;3.22;0.10;;;31.80;31.40;;;;;;5089342;28;20046;-44
2022/06/15 02:24:59;;;;;;;0.17;0.10;;;31.80;31.50;;;;;;5093565;28;20777;-47
2022/06/15 02:27:29;;;;;;;3.10;0.10;;;31.80;31.40;;;;;;5074080;28;20805;-47
2022/06/15 02:30:05;;;;;;;2.45;0.10;;;31.80;31.40;;;;;;5070624;28;20047;-47
2022/06/15 02:32:38;;;;;;;0.10;0.10;;;31.80;31.40;;;;;;5094618;28;20088;-46
2022/06/15 02:35:07;;;;;;;0.50;0.10;;;31.70;31.40;;;;;;5086506;28;20602;-46
2022/06/15 02:37:34;;;;;;;1.00;0.10;;;31.70;31.40;;;;;;5085265;28;20085;-50
2022/06/15 02:40:02;;;;;;;2.40;0.22;;;31.70;31.40;;;;;;5082969;28;20059;-45
2022/06/15 02:42:34;;;;;;;0.90;0.20;;;31.70;31.40;;;;;;5074270;28;20043;-47
2022/06/15 02:45:13;;;;;;;0.82;0.10;;;31.70;31.40;;;;;;5075719;28;20193;-45
2022/06/15 02:47:43;;;;;;;2.20;0.25;;;31.70;31.50;;;;;;5086746;28;20048;-45
2022/06/15 02:50:16;;;;;;;0.95;0.38;;;31.70;31.50;;;;;;5099009;28;20048;-48
2022/06/15 02:52:48;;;;;;;3.60;0.10;;;31.60;31.40;;;;;;5085096;28;20044;-47
2022/06/15 02:55:17;;;;;;;1.33;0.25;;;31.60;31.50;;;;;;5081373;28;20031;-44
2022/06/15 02:57:47;;;;;;;1.13;0.10;;;31.70;31.70;;;;;;5082208;28;20031;-44
2022/06/15 03:00:20;;;;;;;1.27;0.10;;;31.70;31.80;;;;;;5082361;28;20036;-46
2022/06/15 03:02:49;;;;;;;0.35;0.20;;;31.70;31.80;;;;;;5067218;28;20121;-47
2022/06/15 03:05:17;;;;;;;1.10;0.20;;;31.70;31.80;;;;;;5085882;28;20388;-48
2022/06/15 03:07:45;;;;;;;0.68;0.10;;;31.80;31.80;;;;;;5080995;28;20040;-48
2022/06/15 03:10:15;;;;;;;2.13;0.57;;;31.80;31.70;;;;;;5082031;28;20046;-50
2022/06/15 03:12:42;;;;;;;1.55;0.13;;;31.80;31.70;;;;;;5089327;28;20127;-51
2022/06/15 03:15:11;;;;;;;0.85;0.32;;;31.90;31.70;;;;;;5069132;28;20073;-48
2022/06/15 03:17:38;;;;;;;5.25;0.43;;;31.90;31.70;;;;;;5097036;27;20075;-44
2022/06/15 03:20:10;;;;;;;1.73;0.75;;;31.90;31.70;;;;;;5084656;28;20416;-44
2022/06/15 03:22:39;;;;;;;0.10;0.10;;;31.90;31.70;;;;;;5072181;28;20056;-49
2022/06/15 03:25:14;;;;;;;1.13;0.20;;;31.90;31.70;;;;;;5080227;28;20040;-45
2022/06/15 03:27:41;;;;;;;2.38;0.10;;;31.90;31.80;;;;;;5074839;28;20586;-44
2022/06/15 03:30:11;;;;;;;1.42;0.17;;;32.00;32.00;;;;;;5069204;28;20493;-47
2022/06/15 03:32:52;;;;;;;6.75;0.10;;;32.00;32.00;;;;;;5076116;28;20131;-49
2022/06/15 03:35:22;;;;;;;0.68;0.43;;;32.00;32.00;;;;;;5091857;28;20048;-46
2022/06/15 03:37:51;;;;;;;0.82;0.30;;;32.00;32.00;;;;;;5087416;28;20055;-45
2022/06/15 03:40:27;;;;;;;0.73;0.10;;;32.00;32.00;;;;;;5082107;28;20043;-46
2022/06/15 03:42:55;;;;;;;0.32;0.10;;;32.00;32.00;;;;;;5076225;28;20054;-46
2022/06/15 03:45:24;;;;;;;1.33;0.22;;;32.00;32.00;;;;;;5073028;28;20043;-46
2022/06/15 03:47:55;;;;;;;0.50;0.47;;;32.00;32.00;;;;;;5084942;28;20492;-48
2022/06/15 03:50:25;;;;;;;1.25;0.10;;;32.00;32.00;;;;;;5074531;28;20036;-45
2022/06/15 03:52:57;;;;;;;0.55;0.10;;;32.10;32.00;;;;;;5082595;28;20050;-46
2022/06/15 03:55:25;;;;;;;0.95;0.13;;;32.00;31.90;;;;;;5081686;28;20043;-45
2022/06/15 03:57:52;;;;;;;0.35;0.30;;;32.00;31.90;;;;;;5098770;28;20131;-47
2022/06/15 04:00:21;;;;;;;2.30;0.30;;;32.00;31.90;;;;;;5070504;28;20878;-46
2022/06/15 04:02:52;;;;;;;1.38;0.38;;;32.00;31.90;;;;;;5084436;28;20221;-50
2022/06/15 04:05:42;;;;;;;3.00;0.20;;;32.00;31.90;;;;;;5091722;28;20100;-49
2022/06/15 04:11:02;;;;;;;1.77;0.20;;;32.10;32.00;;;;;;5074349;28;20048;-50
2022/06/15 04:13:29;;;;;;;2.53;0.20;;;32.00;31.90;;;;;;5075463;28;20127;-50
2022/06/15 04:15:56;;;;;;;0.22;0.10;;;32.10;31.90;;;;;;5076143;28;20496;-51
2022/06/15 04:18:26;;;;;;;0.77;0.68;;;32.10;31.90;;;;;;5070862;28;20036;-47
2022/06/15 04:20:56;;;;;;;1.08;0.22;;;32.10;31.90;;;;;;5090815;28;20122;-47
2022/06/15 04:23:26;;;;;;;0.73;0.30;;;32.10;31.80;;;;;;5076823;28;20515;-48
2022/06/15 04:25:57;;;;;;;0.43;0.10;;;32.00;31.70;;;;;;5094161;28;20480;-46
2022/06/15 04:28:29;;;;;;;0.88;0.10;;;32.10;31.70;;;;;;5084906;28;20155;-47
2022/06/15 04:31:00;;;;;;;1.65;0.20;;;32.10;31.70;;;;;;5080542;28;20105;-48
2022/06/15 04:33:33;;;;;;;4.03;0.20;;;32.10;31.70;;;;;;5073672;28;20455;-44
2022/06/15 04:36:02;;;;;;;1.20;0.35;;;32.00;31.60;;;;;;5080170;28;20787;-48
2022/06/15 04:38:30;;;;;;;2.53;0.17;;;32.10;31.70;;;;;;5072460;28;20128;-48
2022/06/15 04:41:03;;;;;;;1.90;0.25;;;32.10;31.70;;;;;;5078764;28;20055;-47
2022/06/15 04:43:31;;;;;;;2.15;0.45;;;32.00;31.60;;;;;;5080663;28;20043;-45
2022/06/15 04:45:58;;;;;;;1.10;0.20;;;32.10;31.60;;;;;;5078843;28;20048;-46
2022/06/15 04:48:27;;;;;;;4.13;0.17;;;32.10;31.60;;;;;;5080739;28;20068;-51
2022/06/15 04:50:55;;;;;;;2.72;0.15;;;32.10;31.60;;;;;;5074595;28;20133;-46
2022/06/15 04:53:28;;;;;;;2.45;0.32;;;32.10;31.60;;;;;;5082645;28;20050;-47
2022/06/15 04:55:55;;;;;;;0.77;0.20;;;32.10;31.60;;;;;;5091144;28;20048;-46
2022/06/15 04:58:23;;;;;;;1.92;0.20;;;32.10;31.60;;;;;;5095691;28;20033;-44
2022/06/15 05:00:56;;;;;;;2.28;0.30;;;32.10;31.60;;;;;;5080771;28;20073;-49
2022/06/15 05:03:23;;;;;;;1.42;0.28;;;32.10;31.60;;;;;;5072596;28;20070;-48
2022/06/15 05:05:55;;;;;;;3.50;0.50;;;32.10;31.60;;;;;;5088432;28;20051;-47
2022/06/15 05:08:22;;;;;;;1.05;0.52;;;32.10;31.60;;;;;;5074149;28;20048;-46
2022/06/15 05:10:52;;;;;;;2.15;0.30;;;32.10;31.60;;;;;;5079806;28;20048;-46
2022/06/15 05:13:20;;;;;;;0.60;0.20;;;32.10;31.60;;;;;;5073732;28;20083;-45
2022/06/15 05:15:51;;;;;;;1.48;0.32;;;32.10;31.60;;;;;;5075552;28;20043;-48
2022/06/15 05:18:18;;;;;;;1.55;0.30;;;32.10;31.60;;;;;;5075881;28;20044;-46
2022/06/15 05:20:48;;;;;;;1.92;0.10;;;32.10;31.50;;;;;;5078430;28;20125;-44
2022/06/15 05:23:20;;;;;;;1.52;0.50;;;32.10;31.40;;;;;;5078305;28;20056;-48
2022/06/15 05:26:07;;;;;;;;;;;32.10;31.40;;;;;;5089507;28;20044;-47
2022/06/15 05:28:37;;;;;;;0.40;0.20;;;32.10;31.40;;;;;;5083559;28;19924;-47
2022/06/15 05:31:12;;;;;;;0.30;0.15;;;32.00;31.50;;;;;;5077660;28;20032;-44
2022/06/15 05:33:40;;;;;;;0.75;0.20;;;32.00;32.10;;;;;;5072599;28;20540;-45
2022/06/15 05:36:13;;;;;;;2.17;0.50;;;31.90;31.40;;;;;;5072728;28;20044;-44
2022/06/15 05:38:41;;;;;;;0.80;0.30;;;32.00;31.50;;;;;;5066736;28;20136;-45
2022/06/15 05:41:10;;;;;;;4.28;0.30;;;32.00;31.50;;;;;;5081361;28;20108;-44
2022/06/15 05:43:40;;;;;;;1.33;0.20;;;32.00;31.60;;;;;;5095011;28;20687;-48
2022/06/15 05:46:15;;;;;;;1.33;0.25;;;31.90;31.50;;;;;;5079036;28;20054;-46
2022/06/15 05:48:44;;;;;;;2.85;0.32;;;32.00;31.60;;;;;;5074029;28;20087;-49
2022/06/15 05:51:16;;;;;;;1.65;0.15;;;32.00;31.60;;;;;;5068879;28;20043;-48
2022/06/15 05:53:43;;;;;;;5.95;0.28;;;32.00;31.60;;;;;;5075436;28;20048;-50
2022/06/15 05:56:12;;;;;;;1.75;0.45;;;32.00;31.50;;;;;;5091601;28;20114;-48
2022/06/15 05:58:39;;;;;;;2.00;0.73;;;32.00;31.50;;;;;;5078663;28;20059;-47
2022/06/15 06:01:11;;;;;;;3.42;0.73;;;32.00;31.50;;;;;;5099109;28;20039;-46
2022/06/15 06:03:38;;;;;;;3.83;0.60;;;31.90;31.40;;;;;;5090760;28;20075;-46
2022/06/15 06:06:06;;;;;;;1.67;0.40;;;32.00;31.50;;;;;;5093976;28;20443;-45
2022/06/15 06:08:33;;;;;;;2.40;1.10;;;31.90;31.40;;;;;;5092411;28;20127;-46
2022/06/15 06:11:00;;;;;;;2.67;0.40;;;32.00;31.50;;;;;;5100347;28;20127;-45
2022/06/15 06:13:29;;;;;;;1.17;0.43;;;31.90;31.40;;;;;;5090764;28;20055;-48
2022/06/15 06:15:57;;;;;;;1.40;0.45;;;32.00;31.40;;;;;;5099660;28;20028;-47
2022/06/15 06:18:24;;;;;;;3.00;0.50;;;32.00;31.40;;;;;;5091578;28;20082;-48
2022/06/15 06:20:52;;;;;;;2.42;0.88;;;32.00;31.40;;;;;;5091907;28;20593;-45
2022/06/15 06:23:20;;;;;;;2.58;0.70;;;32.00;31.40;;;;;;5092591;28;20056;-42
2022/06/15 06:25:50;;;;;;;1.05;0.50;;;32.00;31.40;;;;;;5093126;28;20117;-46
2022/06/15 06:28:26;;;;;;;5.72;0.77;;;32.00;31.40;;;;;;5096806;28;20496;-47
2022/06/15 06:30:57;;;;;;;1.95;0.60;;;32.00;31.30;;;;;;5090407;28;20554;-45
2022/06/15 06:33:25;;;;;;;2.85;0.63;;;32.00;31.30;;;;;;5090054;28;20040;-43
2022/06/15 06:35:52;;;;;;;2.10;0.30;;;31.90;31.40;;;;;;5076317;28;20051;-45
2022/06/15 06:38:20;;;;;;;5.13;0.52;;;31.90;31.60;;;;;;5097488;28;20149;-44
2022/06/15 06:40:48;;;;;;;2.92;0.68;;;31.80;31.60;;;;;;5095483;28;20761;-45
2022/06/15 06:43:15;;;;;;;4.50;0.47;;;31.80;31.80;;;;;;5096144;28;20047;-44
2022/06/15 06:45:43;;;;;;;5.53;0.70;;;31.80;31.80;;;;;;5095572;28;20085;-44
2022/06/15 06:48:12;;;;;;;2.53;0.90;;;31.70;31.80;;;;;;5090121;28;20044;-46
2022/06/15 06:50:40;;;;;;;5.68;1.42;;;31.60;31.70;;;;;;5089283;28;20066;-43
2022/06/15 06:53:08;;;;;;;5.82;1.15;;;31.60;31.80;;;;;;5094728;28;20044;-47
2022/06/15 06:55:35;;;;;;;1.15;0.40;;;31.60;31.80;;;;;;5089632;28;20035;-44
2022/06/15 06:58:03;;;;;;;3.72;0.50;;;31.60;31.80;;;;;;5097823;27;20127;-47
2022/06/15 07:00:32;;;;;;;3.00;0.60;;;31.60;31.90;;;;;;5088847;28;20043;-45
2022/06/15 07:03:01;;;;;;;4.88;0.30;;;31.60;31.90;;;;;;5090401;28;20139;-48
2022/06/15 07:05:33;;;;;;;1.60;0.40;;;31.50;31.80;;;;;;5092301;28;20050;-46
2022/06/15 07:08:00;;;;;;;2.95;0.93;;;31.50;31.90;;;;;;5092659;28;20894;-44
2022/06/15 07:10:27;;;;;;;6.40;0.45;;;31.50;31.80;;;;;;5094297;28;20043;-46
2022/06/15 07:12:54;;;;;;;4.25;0.35;;;31.40;31.80;;;;;;5090040;28;20653;-45
2022/06/15 07:15:22;;;;;;;4.35;0.30;;;31.40;31.80;;;;;;5088898;28;20039;-45
2022/06/15 07:17:49;;;;;;;2.55;0.35;;;31.40;31.90;;;;;;5090620;28;20028;-46
2022/06/15 07:20:16;;;;;;;1.92;0.63;;;31.40;31.90;;;;;;5098482;28;20048;-44
2022/06/15 07:22:44;;;;;;;1.55;0.22;;;31.40;31.90;;;;;;5089806;28;20559;-45
2022/06/15 07:25:12;;;;;;;1.10;0.20;;;31.40;31.90;;;;;;5093067;28;20039;-45
2022/06/15 07:27:40;;;;;;;6.70;0.60;;;31.40;31.90;;;;;;5089055;28;20040;-45
2022/06/15 07:30:11;;;;;;;2.67;0.70;;;31.40;32.50;;;;;;5090946;28;20032;-45
2022/06/15 07:32:40;;;;;;;2.97;0.30;;;31.30;31.80;;;;;;5086713;28;20076;-44
2022/06/15 07:35:12;;;;;;;10.27;1.15;;;31.30;31.90;;;;;;5094096;28;20047;-45
2022/06/15 07:37:39;;;;;;;2.88;0.45;;;31.30;31.90;;;;;;5095418;28;20155;-47
2022/06/15 07:40:09;;;;;;;5.53;0.80;;;31.30;31.90;;;;;;5091520;28;20117;-44
2022/06/15 07:42:37;;;;;;;3.75;0.20;;;31.30;31.90;;;;;;5093332;28;20110;-44
2022/06/15 07:45:04;;;;;;;1.42;0.20;;;31.20;31.90;;;;;;5088509;28;20082;-44
2022/06/15 07:50:17;;;;;;;2.40;0.43;;;31.20;32.00;;;;;;5095153;28;20055;-44
2022/06/15 07:52:47;;;;;;;2.58;0.30;;;31.30;32.00;;;;;;5096191;28;20044;-46
2022/06/15 07:55:19;;;;;;;2.13;0.15;;;31.20;31.90;;;;;;5088907;28;20332;-47
2022/06/15 07:57:47;;;;;;;2.25;0.50;;;31.30;32.00;;;;;;5070048;28;20043;-50
2022/06/15 08:00:16;;;;;;;13.45;0.68;;;31.20;32.00;;;;;;5086607;28;20070;-48
2022/06/15 08:02:43;;;;;;;3.92;0.30;;;31.30;32.00;;;;;;5089212;28;20364;-48
2022/06/15 08:05:11;;;;;;;5.38;0.20;;;31.30;31.90;;;;;;5090663;28;20043;-45
2022/06/15 08:07:39;;;;;;;4.32;0.30;;;31.30;31.90;;;;;;5091874;28;20765;-48
2022/06/15 08:10:07;;;;;;;1.33;0.65;;;31.30;32.10;;;;;;5093448;28;20555;-45
2022/06/15 08:12:36;;;;;;;4.55;0.40;;;31.40;32.10;;;;;;5088619;28;20415;-45
2022/06/15 08:15:05;;;;;;;5.30;0.50;;;31.40;32.10;;;;;;5095451;28;20047;-48
2022/06/15 08:17:41;;;;;;;2.10;0.20;;;31.40;32.10;;;;;;5089176;28;20125;-47
2022/06/15 08:20:12;;;;;;;5.15;1.05;;;31.40;32.10;;;;;;5093593;28;20067;-48
2022/06/15 08:22:42;;;;;;;9.60;0.85;;;31.40;32.10;;;;;;5089108;28;20055;-50
2022/06/15 08:25:13;;;;;;;7.05;0.65;;;31.40;32.00;;;;;;5091378;28;20093;-47
2022/06/15 08:27:41;;;;;;;6.80;1.00;;;31.40;31.80;;;;;;5090946;28;20092;-47
2022/06/15 08:30:11;;;;;;;9.15;0.40;;;31.40;31.70;;;;;;5089370;28;20036;-50
2022/06/15 08:32:39;;;;;;;2.70;0.38;;;31.40;31.60;;;;;;5085599;28;20054;-45
2022/06/15 08:35:07;;;;;;;3.70;0.52;;;31.40;31.50;;;;;;5094350;28;20043;-45
2022/06/15 08:37:34;;;;;;;2.67;0.25;;;31.40;31.50;;;;;;5094176;28;20867;-46
2022/06/15 08:40:02;;;;;;;3.15;0.88;;;31.40;31.50;;;;;;5088147;28;20396;-43
2022/06/15 08:42:38;;;;;;;1.92;0.40;;;31.30;31.50;;;;;;5088506;28;20051;-45
2022/06/15 08:45:19;;;;;;;5.68;0.73;;;31.30;31.40;;;;;;5087279;28;20036;-45
2022/06/15 08:48:03;;;;;;;2.47;0.88;;;31.30;31.50;;;;;;5089724;28;20047;-46
2022/06/15 08:50:35;;;;;;;2.83;0.30;;;31.30;31.50;;;;;;5084450;28;20584;-45
2022/06/15 08:53:10;;;;;;;7.05;0.82;;;31.30;31.50;;;;;;5094898;28;20534;-45
2022/06/15 08:55:44;;;;;;;2.92;0.57;;;31.30;31.30;;;;;;5097668;28;20055;-46
2022/06/15 08:58:17;;;;;;;3.88;0.40;;;31.30;31.20;;;;;;5095041;28;20126;-43
2022/06/15 09:00:46;;;;;;;3.83;0.95;;;31.20;31.20;;;;;;5090535;28;20577;-46
2022/06/15 09:03:24;;;;;;;3.92;0.40;;;31.20;31.20;;;;;;5087096;28;20036;-46
2022/06/15 09:06:00;;;;;;;1.60;0.20;;;31.30;31.30;;;;;;5098797;28;20189;-47
2022/06/15 09:08:59;;;;;;;4.30;0.38;;;31.30;31.10;;;;;;5090997;28;20056;-43
2022/06/15 09:11:39;;;;;;;1.77;0.20;;;31.30;31.10;;;;;;5088472;28;20089;-43
2022/06/15 09:14:20;;;;;;;5.45;1.33;;;31.30;31.40;;;;;;5098285;28;20036;-53
2022/06/15 09:16:58;;;;;;;2.05;0.77;;;31.30;31.90;;;;;;5086310;28;20139;-50
2022/06/15 09:19:29;;;;;;;11.07;0.55;;;31.30;32.20;;;;;;5091994;28;20051;-52
2022/06/15 09:22:02;;;;;;;9.93;0.68;;;31.30;32.10;;;;;;5087795;28;20090;-57
2022/06/15 09:24:36;;;;;;;2.22;0.65;;;31.40;32.40;;;;;;5088486;28;20038;-55
2022/06/15 09:27:09;;;;;;;3.15;0.52;;;31.40;32.30;;;;;;5087535;28;20135;-53
2022/06/15 09:29:41;;;;;;;4.90;0.35;;;31.40;32.30;;;;;;5093833;28;20043;-55
2022/06/15 09:32:15;;;;;;;3.80;0.35;;;31.40;32.10;;;;;;5101545;28;20050;-51
2022/06/15 09:34:49;;;;;;;2.65;1.25;;;31.40;32.00;;;;;;5098562;28;20043;-52
2022/06/15 09:37:20;;;;;;;3.33;0.73;;;31.40;31.90;;;;;;5094656;28;20082;-49
2022/06/15 09:39:47;;;;;;;4.03;0.20;;;31.40;32.00;;;;;;5093007;28;20132;-45
2022/06/15 09:42:19;;;;;;;1.92;0.38;;;31.50;32.10;;;;;;5094918;28;20122;-57
2022/06/15 09:44:53;;;;;;;8.65;0.85;;;31.40;32.10;;;;;;5079407;28;20047;-47
2022/06/15 09:47:33;;;;;;;2.13;0.50;;;31.50;32.20;;;;;;5098911;28;20333;-46
2022/06/15 09:50:11;;;;;;;0.85;0.32;;;31.50;32.20;;;;;;5099573;28;20267;-52
2022/06/15 09:52:46;;;;;;;5.30;0.40;;;31.50;32.10;;;;;;5098957;28;20060;-51
2022/06/15 09:55:22;;;;;;;8.30;0.70;;;31.50;31.90;;;;;;5095584;28;20124;-50
2022/06/15 09:57:54;;;;;;;3.88;0.52;;;31.50;32.00;;;;;;5092763;28;20131;-50
2022/06/15 10:00:21;;;;;;;3.00;0.98;;;31.60;32.10;;;;;;5089110;28;20400;-51
2022/06/15 10:02:55;;;;;;;1.45;0.60;;;31.60;32.00;;;;;;5100704;28;20441;-53
2022/06/15 10:05:26;;;;;;;1.85;0.77;;;31.60;32.00;;;;;;5094551;28;20047;-49
2022/06/15 10:07:56;;;;;;;2.30;0.20;;;31.60;31.90;;;;;;5102790;28;20069;-42
2022/06/15 10:10:27;;;;;;;4.63;0.50;;;31.60;31.90;;;;;;5098128;28;20074;-47
2022/06/15 10:13:03;;;;;;;1.60;0.30;;;31.60;32.00;;;;;;5094197;28;20087;-48
2022/06/15 10:15:34;;;;;;;3.70;1.02;;;31.60;32.00;;;;;;5093390;28;20511;-52
2022/06/15 10:18:17;;;;;;;3.58;0.60;;;31.60;32.00;;;;;;5088672;28;20226;-53
2022/06/15 10:20:58;;;;;;;5.03;0.28;;;31.70;32.00;;;;;;5092059;28;20048;-50
2022/06/15 10:23:37;;;;;;;6.43;0.30;;;31.70;32.00;;;;;;5093657;28;20040;-51
2022/06/15 10:26:05;;;;;;;9.65;0.75;;;31.80;31.90;;;;;;5095208;28;20046;-56
2022/06/15 10:28:35;;;;;;;10.00;1.15;;;31.80;31.90;;;;;;5061410;28;20051;-59
2022/06/15 10:31:07;;;;;;;3.88;0.65;;;31.80;32.00;;;;;;5078056;28;20044;-56
2022/06/15 10:33:39;;;;;;;4.30;0.45;;;31.80;32.00;;;;;;5093089;28;20035;-55
2022/06/15 10:36:20;;;;;;;2.33;0.73;;;31.80;32.00;;;;;;5099963;28;20047;-57
2022/06/15 10:38:53;;;;;;;2.67;0.40;;;31.80;32.10;;;;;;5094630;28;20465;-66
2022/06/15 10:41:46;;;;;;;4.65;0.47;;;31.80;32.00;;;;;;5090883;28;20492;-54
2022/06/15 10:44:16;;;;;;;6.22;0.20;;;31.80;32.10;;;;;;5098131;28;20043;-54
2022/06/15 10:46:52;;;;;;;3.50;0.77;;;31.80;32.00;;;;;;5097137;28;20033;-54
2022/06/15 10:49:23;;;;;;;9.00;1.98;;;31.90;31.90;;;;;;5094030;28;20101;-55
2022/06/15 10:51:51;;;;;;;8.20;1.20;;;31.90;31.90;;;;;;5094595;28;20081;-47
2022/06/15 10:54:22;;;;;;;6.05;1.40;;;31.90;32.00;;;;;;5096729;28;20043;-60
2022/06/15 11:02:45;;;;;;;7.15;0.95;;;32.00;31.90;;;;;;5032660;28;20072;-53
2022/06/15 11:05:18;;;;;;;10.80;2.25;;;32.00;32.00;;;;;;5044649;28;20913;-53
2022/06/15 11:07:48;;;;;;;2.08;1.02;;;32.10;32.10;;;;;;5042620;28;20503;-52
2022/06/15 11:10:26;;;;;;;7.93;1.17;;;32.10;32.10;;;;;;5035373;28;20191;-49
2022/06/15 11:12:57;;;;;;;10.40;1.25;;;32.10;32.10;;;;;;5030533;28;20044;-47
2022/06/15 11:18:30;;;;;;;1.20;0.70;;;32.20;32.10;;;;;;5024243;28;20128;-49
2022/06/15 11:21:05;;;;;;;2.22;0.82;;;32.10;32.00;;;;;;5029953;28;20553;-49
2022/06/15 11:23:42;;;;;;;2.38;0.90;;;32.30;32.00;;;;;;5024748;28;20103;-49
2022/06/15 11:29:10;;;;;;;7.07;0.35;;;32.20;31.70;;;;;;5028702;28;20064;-49
2022/06/15 11:31:41;;;;;;;2.53;0.70;;;32.30;31.80;;;;;;5067027;28;20587;-48
2022/06/15 11:34:14;;;;;;;6.75;1.42;;;32.30;31.80;;;;;;5091666;28;20059;-45
2022/06/15 11:36:51;;;;;;;6.63;1.73;;;32.30;31.70;;;;;;5091399;28;20072;-45
2022/06/15 11:39:23;;;;;;;22.50;1.85;;;32.40;31.80;;;;;;5091032;28;20385;-46
2022/06/15 11:41:53;;;;;;;17.27;1.30;;;32.40;32.00;;;;;;5074533;28;20046;-48
2022/06/15 11:44:24;;;;;;;6.50;1.77;;;32.40;32.10;;;;;;5096544;28;20051;-49
2022/06/15 11:47:09;;;;;;;27.95;1.75;;;32.40;32.30;;;;;;5096180;28;20039;-48
2022/06/15 11:49:43;;;;;;;23.40;1.85;;;32.50;32.40;;;;;;5091494;28;20043;-49
2022/06/15 11:52:41;;;;;;;7.97;0.80;;;32.50;32.70;;;;;;5093553;28;20036;-50
2022/06/15 11:55:22;;;;;;;6.05;0.90;;;32.50;32.90;;;;;;5095349;28;20035;-48
2022/06/15 11:58:09;;;;;;;9.13;1.38;;;32.60;33.20;;;;;;5094056;28;20086;-50
2022/06/15 12:00:42;;;;;;;5.45;0.60;;;32.60;33.10;;;;;;5092473;28;20122;-46
2022/06/15 12:03:37;;;;;;;5.72;1.60;;;32.60;33.00;;;;;;5093933;28;20548;-48
2022/06/15 12:06:10;;;;;;;8.20;0.75;;;32.70;32.90;;;;;;5090273;28;20046;-47
2022/06/15 12:08:47;;;;;;;3.90;0.65;;;32.70;32.70;;;;;;5088813;28;20055;-52
2022/06/15 12:14:14;;;;;;;1.45;0.40;;;32.80;32.80;;;;;;5094552;28;20631;-46
2022/06/15 12:16:50;;;;;;;2.30;0.40;;;32.80;32.70;;;;;;5093332;28;20096;-46
2022/06/15 12:19:25;;;;;;;4.40;1.05;;;32.90;32.80;;;;;;5093486;28;20168;-49
2022/06/15 12:21:57;;;;;;;2.60;0.40;;;32.90;32.80;;;;;;5101572;28;20411;-48
2022/06/15 12:24:34;;;;;;;4.47;0.85;;;33.00;33.40;;;;;;5075100;28;20482;-50
2022/06/15 12:27:08;;;;;;;1.58;0.50;;;33.10;32.70;;;;;;5094817;28;20511;-52
2022/06/15 12:29:44;;;;;;;2.45;1.25;;;33.10;32.40;;;;;;5091653;28;20047;-52
2022/06/15 12:35:28;;;;;;;2.78;1.10;;;33.20;32.50;;;;;;5088363;28;20044;-50
2022/06/15 12:37:59;;;;;;;2.35;0.98;;;33.20;32.70;;;;;;5093028;28;20524;-49
2022/06/15 12:40:32;;;;;;;3.92;0.57;;;33.30;32.90;;;;;;5090415;28;20054;-51
2022/06/15 12:43:12;;;;;;;3.88;0.63;;;33.30;33.00;;;;;;5091322;28;20044;-47
2022/06/15 12:45:45;;;;;;;1.55;0.50;;;33.40;33.10;;;;;;5089469;28;20576;-52
2022/06/15 12:48:19;;;;;;;4.03;0.68;;;33.50;33.10;;;;;;5089097;28;20047;-52
2022/06/15 12:50:54;;;;;;;4.80;1.57;;;33.50;33.00;;;;;;5084657;28;20077;-52
2022/06/15 12:53:33;;;;;;;1.58;1.20;;;33.60;33.20;;;;;;5098923;28;20139;-49
2022/06/15 12:56:12;;;;;;;2.15;0.45;;;33.60;33.40;;;;;;5093575;28;20707;-49
2022/06/15 12:58:49;;;;;;;1.60;0.30;;;33.70;33.70;;;;;;5090014;28;20072;-52
2022/06/15 13:01:23;;;;;;;1.60;1.13;;;33.70;33.70;;;;;;5091884;28;20036;-50
2022/06/15 13:04:05;;;;;;;1.05;0.40;;;33.80;33.60;;;;;;5092452;28;20044;-52
2022/06/15 13:06:34;;;;;;;1.33;0.90;;;33.90;33.40;;;;;;5097716;28;20051;-50
2022/06/15 13:09:20;;;;;;;2.35;0.82;;;33.90;33.20;;;;;;5098762;28;20409;-49
2022/06/15 13:11:59;;;;;;;1.17;0.50;;;34.00;33.10;;;;;;5091778;28;20050;-48
2022/06/15 13:14:30;;;;;;;3.88;0.50;;;34.10;33.20;;;;;;5094724;28;20054;-46
2022/06/15 13:17:10;;;;;;;4.07;1.33;;;34.20;33.00;;;;;;5104462;27;20514;-46
2022/06/15 13:19:40;;;;;;;0.98;0.22;;;34.20;32.90;;;;;;5099051;27;20128;-49
2022/06/15 13:22:12;;;;;;;2.35;0.40;;;34.30;32.90;;;;;;5098527;28;20039;-48
2022/06/15 13:24:51;;;;;;;0.50;0.40;;;34.30;32.70;;;;;;5091208;28;20040;-48
2022/06/15 13:27:29;;;;;;;0.60;0.22;;;34.30;32.60;;;;;;5090875;28;20063;-51
2022/06/15 13:30:23;;;;;;;0.73;0.30;;;34.30;32.60;;;;;;5090881;28;20055;-48
2022/06/15 13:33:02;;;;;;;1.95;0.60;;;34.40;32.50;;;;;;5080363;28;20043;-53
2022/06/15 13:35:34;;;;;;;10.60;0.40;;;34.30;32.20;;;;;;5093610;28;20079;-46